sensor_id;sensor_type;location;lat;lon;timestamp;pressure;altitude;pressure_sealevel;temperature;humidity
63700;BME280;49845;47.130;142.766;2023-02-18T00:01:36;100597.38;;;-6.42;73.39
63700;BME280;49845;47.130;142.766;2023-02-18T00:04:11;100602.34;;;-6.29;72.79
63700;BME280;49845;47.130;142.766;2023-02-18T00:06:43;100587.63;;;-6.35;72.55
63700;BME280;49845;47.130;142.766;2023-02-18T00:09:15;100589.03;;;-6.25;72.87
63700;BME280;49845;47.130;142.766;2023-02-18T00:11:46;100592.09;;;-6.16;72.27
63700;BME280;49845;47.130;142.766;2023-02-18T00:14:18;100579.00;;;-6.07;72.01
63700;BME280;49845;47.130;142.766;2023-02-18T00:16:50;100566.53;;;-6.02;71.79
63700;BME280;49845;47.130;142.766;2023-02-18T00:19:24;100573.28;;;-5.87;71.35
63700;BME280;49845;47.130;142.766;2023-02-18T00:21:55;100576.59;;;-5.73;70.98
63700;BME280;49845;47.130;142.766;2023-02-18T00:24:27;100566.91;;;-5.64;70.66
63700;BME280;49845;47.130;142.766;2023-02-18T00:27:00;100547.19;;;-5.51;70.77
63700;BME280;49845;47.130;142.766;2023-02-18T00:29:36;100556.25;;;-5.40;69.92
63700;BME280;49845;47.130;142.766;2023-02-18T00:32:09;100548.00;;;-5.36;69.68
63700;BME280;49845;47.130;142.766;2023-02-18T00:34:44;100557.03;;;-5.25;69.53
63700;BME280;49845;47.130;142.766;2023-02-18T00:37:16;100552.13;;;-5.22;69.32
63700;BME280;49845;47.130;142.766;2023-02-18T00:39:47;100554.19;;;-5.31;69.23
63700;BME280;49845;47.130;142.766;2023-02-18T00:42:29;100542.41;;;-5.29;69.11
63700;BME280;49845;47.130;142.766;2023-02-18T00:45:04;100553.72;;;-5.24;68.83
63700;BME280;49845;47.130;142.766;2023-02-18T00:47:40;100529.50;;;-5.15;68.56
63700;BME280;49845;47.130;142.766;2023-02-18T00:50:15;100538.69;;;-4.85;68.56
63700;BME280;49845;47.130;142.766;2023-02-18T00:52:47;100520.19;;;-4.81;68.08
63700;BME280;49845;47.130;142.766;2023-02-18T00:55:23;100503.19;;;-4.98;68.59
63700;BME280;49845;47.130;142.766;2023-02-18T00:57:58;100514.78;;;-4.87;68.41
63700;BME280;49845;47.130;142.766;2023-02-18T01:00:32;100510.28;;;-4.74;68.67
63700;BME280;49845;47.130;142.766;2023-02-18T01:03:06;100522.38;;;-4.70;68.57
63700;BME280;49845;47.130;142.766;2023-02-18T01:05:49;100519.94;;;-4.69;68.48
63700;BME280;49845;47.130;142.766;2023-02-18T01:08:27;100509.06;;;-4.47;68.94
63700;BME280;49845;47.130;142.766;2023-02-18T01:10:59;100506.09;;;-4.38;68.76
63700;BME280;49845;47.130;142.766;2023-02-18T01:13:33;100508.19;;;-4.29;68.56
63700;BME280;49845;47.130;142.766;2023-02-18T01:16:06;100502.88;;;-4.16;68.27
63700;BME280;49845;47.130;142.766;2023-02-18T01:18:38;100496.97;;;-4.15;68.25
63700;BME280;49845;47.130;142.766;2023-02-18T01:21:13;100502.63;;;-4.03;68.02
63700;BME280;49845;47.130;142.766;2023-02-18T01:23:45;100494.44;;;-3.96;67.84
63700;BME280;49845;47.130;142.766;2023-02-18T01:26:17;100502.28;;;-3.73;68.16
63700;BME280;49845;47.130;142.766;2023-02-18T01:28:52;100504.03;;;-3.53;68.37
63700;BME280;49845;47.130;142.766;2023-02-18T01:31:25;100493.41;;;-3.42;67.73
63700;BME280;49845;47.130;142.766;2023-02-18T01:33:59;100496.91;;;-3.40;67.76
63700;BME280;49845;47.130;142.766;2023-02-18T01:36:33;100486.78;;;-3.18;67.65
63700;BME280;49845;47.130;142.766;2023-02-18T01:39:07;100461.50;;;-3.12;67.29
63700;BME280;49845;47.130;142.766;2023-02-18T01:41:39;100451.91;;;-2.96;67.16
63700;BME280;49845;47.130;142.766;2023-02-18T01:44:17;100449.53;;;-2.71;67.00
63700;BME280;49845;47.130;142.766;2023-02-18T01:46:48;100456.38;;;-2.49;66.75
63700;BME280;49845;47.130;142.766;2023-02-18T01:49:22;100457.88;;;-2.75;65.62
63700;BME280;49845;47.130;142.766;2023-02-18T01:51:58;100455.91;;;-2.82;65.99
63700;BME280;49845;47.130;142.766;2023-02-18T01:54:31;100429.41;;;-2.84;66.14
63700;BME280;49845;47.130;142.766;2023-02-18T01:57:05;100438.47;;;-2.70;66.16
63700;BME280;49845;47.130;142.766;2023-02-18T01:59:38;100438.63;;;-2.67;66.21
63700;BME280;49845;47.130;142.766;2023-02-18T02:02:12;100437.34;;;-2.55;66.16
63700;BME280;49845;47.130;142.766;2023-02-18T02:04:45;100429.53;;;-2.58;65.93
63700;BME280;49845;47.130;142.766;2023-02-18T02:07:19;100433.03;;;-2.56;66.23
63700;BME280;49845;47.130;142.766;2023-02-18T02:09:52;100427.44;;;-2.69;66.16
63700;BME280;49845;47.130;142.766;2023-02-18T02:12:41;100420.97;;;-3.03;66.76
63700;BME280;49845;47.130;142.766;2023-02-18T02:15:41;100416.13;;;-2.96;67.06
63700;BME280;49845;47.130;142.766;2023-02-18T02:18:30;100406.59;;;-2.78;66.86
63700;BME280;49845;47.130;142.766;2023-02-18T02:24:53;100386.75;;;-2.63;66.86
63700;BME280;49845;47.130;142.766;2023-02-18T02:27:40;100383.31;;;-2.41;66.80
63700;BME280;49845;47.130;142.766;2023-02-18T02:30:41;100378.66;;;-2.28;66.04
63700;BME280;49845;47.130;142.766;2023-02-18T02:33:37;100367.19;;;-2.38;66.35
63700;BME280;49845;47.130;142.766;2023-02-18T02:36:16;100369.72;;;-2.40;66.58
63700;BME280;49845;47.130;142.766;2023-02-18T02:38:56;100360.56;;;-2.33;66.64
63700;BME280;49845;47.130;142.766;2023-02-18T02:41:43;100360.91;;;-2.24;66.37
63700;BME280;49845;47.130;142.766;2023-02-18T02:44:20;100330.09;;;-2.27;66.66
63700;BME280;49845;47.130;142.766;2023-02-18T02:46:54;100344.38;;;-2.09;66.48
63700;BME280;49845;47.130;142.766;2023-02-18T02:49:36;100315.19;;;-2.14;66.17
63700;BME280;49845;47.130;142.766;2023-02-18T02:52:16;100341.03;;;-1.83;66.34
63700;BME280;49845;47.130;142.766;2023-02-18T02:54:51;100332.72;;;-1.76;65.71
63700;BME280;49845;47.130;142.766;2023-02-18T02:57:44;100333.75;;;-1.70;66.26
63700;BME280;49845;47.130;142.766;2023-02-18T03:00:17;100298.91;;;-1.91;65.93
63700;BME280;49845;47.130;142.766;2023-02-18T03:03:05;100310.34;;;-1.81;66.12
63700;BME280;49845;47.130;142.766;2023-02-18T03:05:52;100311.72;;;-1.65;66.28
63700;BME280;49845;47.130;142.766;2023-02-18T03:08:37;100323.75;;;-1.64;66.07
63700;BME280;49845;47.130;142.766;2023-02-18T03:11:10;100301.28;;;-1.71;66.08
63700;BME280;49845;47.130;142.766;2023-02-18T03:13:53;100239.78;;;-2.23;66.11
63700;BME280;49845;47.130;142.766;2023-02-18T03:16:28;100306.84;;;-1.83;66.39
63700;BME280;49845;47.130;142.766;2023-02-18T03:19:07;100307.84;;;-1.80;66.69
63700;BME280;49845;47.130;142.766;2023-02-18T03:21:43;100294.38;;;-1.74;66.52
63700;BME280;49845;47.130;142.766;2023-02-18T03:24:19;100291.84;;;-1.73;66.76
63700;BME280;49845;47.130;142.766;2023-02-18T03:26:55;100280.97;;;-1.65;66.60
63700;BME280;49845;47.130;142.766;2023-02-18T03:29:28;100266.88;;;-1.80;66.43
63700;BME280;49845;47.130;142.766;2023-02-18T03:32:02;100276.69;;;-1.66;67.03
63700;BME280;49845;47.130;142.766;2023-02-18T03:34:38;100271.50;;;-1.68;66.72
63700;BME280;49845;47.130;142.766;2023-02-18T03:37:12;100183.72;;;-2.15;66.50
63700;BME280;49845;47.130;142.766;2023-02-18T03:39:48;100250.34;;;-1.62;66.53
63700;BME280;49845;47.130;142.766;2023-02-18T03:42:25;100254.03;;;-1.54;66.62
63700;BME280;49845;47.130;142.766;2023-02-18T03:44:56;100257.78;;;-1.43;66.96
63700;BME280;49845;47.130;142.766;2023-02-18T03:47:27;100246.00;;;-1.38;66.32
63700;BME280;49845;47.130;142.766;2023-02-18T03:49:57;100253.66;;;-1.39;66.38
63700;BME280;49845;47.130;142.766;2023-02-18T03:52:28;100250.09;;;-1.44;66.78
63700;BME280;49845;47.130;142.766;2023-02-18T03:55:00;100234.00;;;-1.39;66.31
63700;BME280;49845;47.130;142.766;2023-02-18T03:57:31;100213.22;;;-1.48;66.11
63700;BME280;49845;47.130;142.766;2023-02-18T04:00:02;100237.00;;;-1.25;66.29
63700;BME280;49845;47.130;142.766;2023-02-18T04:02:33;100231.09;;;-1.22;65.99
63700;BME280;49845;47.130;142.766;2023-02-18T04:05:04;100225.50;;;-1.38;65.71
63700;BME280;49845;47.130;142.766;2023-02-18T04:07:35;100232.78;;;-1.50;65.52
63700;BME280;49845;47.130;142.766;2023-02-18T04:10:07;100220.03;;;-1.48;66.12
63700;BME280;49845;47.130;142.766;2023-02-18T04:12:38;100214.06;;;-1.49;66.03
63700;BME280;49845;47.130;142.766;2023-02-18T04:15:09;100212.25;;;-1.52;66.65
63700;BME280;49845;47.130;142.766;2023-02-18T04:17:41;100212.25;;;-1.52;66.49
63700;BME280;49845;47.130;142.766;2023-02-18T04:20:12;100207.06;;;-1.53;66.58
63700;BME280;49845;47.130;142.766;2023-02-18T04:22:43;100204.44;;;-1.56;66.47
63700;BME280;49845;47.130;142.766;2023-02-18T04:25:16;100194.34;;;-1.50;66.79
63700;BME280;49845;47.130;142.766;2023-02-18T04:27:46;100196.75;;;-1.27;66.89
63700;BME280;49845;47.130;142.766;2023-02-18T04:30:17;100175.91;;;-1.40;66.34
63700;BME280;49845;47.130;142.766;2023-02-18T04:32:48;100189.81;;;-1.32;66.20
63700;BME280;49845;47.130;142.766;2023-02-18T04:35:18;100145.63;;;-1.52;66.44
63700;BME280;49845;47.130;142.766;2023-02-18T04:37:49;100179.63;;;-1.28;66.38
63700;BME280;49845;47.130;142.766;2023-02-18T04:40:21;100193.84;;;-1.11;66.28
63700;BME280;49845;47.130;142.766;2023-02-18T04:42:52;100179.22;;;-1.14;66.63
63700;BME280;49845;47.130;142.766;2023-02-18T04:45:23;100187.50;;;-1.22;66.44
63700;BME280;49845;47.130;142.766;2023-02-18T04:47:54;100184.78;;;-1.28;66.64
63700;BME280;49845;47.130;142.766;2023-02-18T04:50:24;100192.16;;;-1.39;66.71
63700;BME280;49845;47.130;142.766;2023-02-18T04:52:55;100198.81;;;-1.44;67.00
63700;BME280;49845;47.130;142.766;2023-02-18T04:55:27;100198.03;;;-1.42;67.99
63700;BME280;49845;47.130;142.766;2023-02-18T04:57:57;100201.25;;;-1.49;67.67
63700;BME280;49845;47.130;142.766;2023-02-18T05:00:28;100193.78;;;-1.68;67.76
63700;BME280;49845;47.130;142.766;2023-02-18T05:02:59;100204.81;;;-1.71;68.21
63700;BME280;49845;47.130;142.766;2023-02-18T05:05:29;100191.16;;;-1.70;68.87
63700;BME280;49845;47.130;142.766;2023-02-18T05:08:00;100192.31;;;-1.60;68.72
63700;BME280;49845;47.130;142.766;2023-02-18T05:10:32;100189.13;;;-1.53;68.56
63700;BME280;49845;47.130;142.766;2023-02-18T05:13:02;100191.69;;;-1.53;68.54
63700;BME280;49845;47.130;142.766;2023-02-18T05:15:33;100192.47;;;-1.56;69.03
63700;BME280;49845;47.130;142.766;2023-02-18T05:18:06;100180.34;;;-1.61;69.17
63700;BME280;49845;47.130;142.766;2023-02-18T05:20:36;100183.44;;;-1.71;69.68
63700;BME280;49845;47.130;142.766;2023-02-18T05:23:07;100167.88;;;-1.78;69.62
63700;BME280;49845;47.130;142.766;2023-02-18T05:25:39;100180.81;;;-1.73;70.04
63700;BME280;49845;47.130;142.766;2023-02-18T05:28:10;100171.56;;;-1.69;69.90
63700;BME280;49845;47.130;142.766;2023-02-18T05:30:40;100154.34;;;-1.74;69.93
63700;BME280;49845;47.130;142.766;2023-02-18T05:33:11;100159.63;;;-1.69;69.88
63700;BME280;49845;47.130;142.766;2023-02-18T05:35:42;100169.09;;;-1.66;70.16
63700;BME280;49845;47.130;142.766;2023-02-18T05:38:12;100170.72;;;-1.68;70.60
63700;BME280;49845;47.130;142.766;2023-02-18T05:40:44;100164.59;;;-1.74;71.10
63700;BME280;49845;47.130;142.766;2023-02-18T05:43:15;100142.06;;;-1.84;71.45
63700;BME280;49845;47.130;142.766;2023-02-18T05:45:45;100150.88;;;-1.76;71.45
63700;BME280;49845;47.130;142.766;2023-02-18T05:48:16;100158.47;;;-1.79;71.99
63700;BME280;49845;47.130;142.766;2023-02-18T05:50:47;100152.50;;;-1.78;72.10
63700;BME280;49845;47.130;142.766;2023-02-18T05:53:21;100148.84;;;-1.86;72.38
63700;BME280;49845;47.130;142.766;2023-02-18T05:55:53;100143.31;;;-1.98;72.48
63700;BME280;49845;47.130;142.766;2023-02-18T05:58:23;100142.84;;;-2.13;72.96
63700;BME280;49845;47.130;142.766;2023-02-18T06:00:54;100138.94;;;-2.28;73.39
63700;BME280;49845;47.130;142.766;2023-02-18T06:03:24;100145.34;;;-2.41;73.93
63700;BME280;49845;47.130;142.766;2023-02-18T06:05:55;100140.06;;;-2.45;74.72
63700;BME280;49845;47.130;142.766;2023-02-18T06:08:25;100115.59;;;-2.63;75.32
63700;BME280;49845;47.130;142.766;2023-02-18T06:10:57;100136.47;;;-2.50;75.77
63700;BME280;49845;47.130;142.766;2023-02-18T06:13:31;100150.00;;;-2.54;76.48
63700;BME280;49845;47.130;142.766;2023-02-18T06:16:02;100141.41;;;-2.56;76.77
63700;BME280;49845;47.130;142.766;2023-02-18T06:18:33;100134.59;;;-2.56;77.34
63700;BME280;49845;47.130;142.766;2023-02-18T06:21:03;100141.41;;;-2.56;77.95
63700;BME280;49845;47.130;142.766;2023-02-18T06:23:34;100151.53;;;-2.59;78.10
63700;BME280;49845;47.130;142.766;2023-02-18T06:26:06;100149.69;;;-2.64;78.50
63700;BME280;49845;47.130;142.766;2023-02-18T06:28:37;100125.31;;;-2.78;78.79
63700;BME280;49845;47.130;142.766;2023-02-18T06:31:08;100143.88;;;-2.59;79.15
63700;BME280;49845;47.130;142.766;2023-02-18T06:33:38;100133.50;;;-2.63;79.62
63700;BME280;49845;47.130;142.766;2023-02-18T06:36:11;100115.28;;;-2.72;79.96
63700;BME280;49845;47.130;142.766;2023-02-18T06:38:43;100141.41;;;-2.56;80.18
63700;BME280;49845;47.130;142.766;2023-02-18T06:41:15;100137.81;;;-2.62;80.24
63700;BME280;49845;47.130;142.766;2023-02-18T06:43:46;100135.75;;;-2.72;80.97
63700;BME280;49845;47.130;142.766;2023-02-18T06:46:17;100139.13;;;-2.73;80.80
63700;BME280;49845;47.130;142.766;2023-02-18T06:48:47;100138.81;;;-2.82;81.19
63700;BME280;49845;47.130;142.766;2023-02-18T06:51:18;100138.91;;;-2.79;81.31
63700;BME280;49845;47.130;142.766;2023-02-18T06:53:48;100138.81;;;-2.82;81.85
63700;BME280;49845;47.130;142.766;2023-02-18T06:56:21;100121.81;;;-2.80;81.95
63700;BME280;49845;47.130;142.766;2023-02-18T06:58:52;100128.19;;;-2.69;82.30
63700;BME280;49845;47.130;142.766;2023-02-18T07:01:22;100142.59;;;-2.71;82.21
63700;BME280;49845;47.130;142.766;2023-02-18T07:03:55;100144.78;;;-2.82;82.06
63700;BME280;49845;47.130;142.766;2023-02-18T07:06:26;100143.69;;;-2.88;82.55
63700;BME280;49845;47.130;142.766;2023-02-18T07:08:57;100136.72;;;-2.92;82.84
63700;BME280;49845;47.130;142.766;2023-02-18T07:11:29;100147.06;;;-2.89;82.96
63700;BME280;49845;47.130;142.766;2023-02-18T07:13:59;100137.53;;;-2.93;83.48
63700;BME280;49845;47.130;142.766;2023-02-18T07:16:30;100147.06;;;-2.89;83.30
63700;BME280;49845;47.130;142.766;2023-02-18T07:19:01;100158.94;;;-2.91;83.34
63700;BME280;49845;47.130;142.766;2023-02-18T07:21:31;100163.25;;;-3.13;83.47
63700;BME280;49845;47.130;142.766;2023-02-18T07:24:02;100161.16;;;-3.23;84.37
63700;BME280;49845;47.130;142.766;2023-02-18T07:26:34;100172.91;;;-3.51;84.87
63700;BME280;49845;47.130;142.766;2023-02-18T07:29:05;100174.38;;;-3.78;85.44
63700;BME280;49845;47.130;142.766;2023-02-18T07:31:35;100171.25;;;-3.71;86.09
63700;BME280;49845;47.130;142.766;2023-02-18T07:34:06;100171.63;;;-3.62;86.44
63700;BME280;49845;47.130;142.766;2023-02-18T07:36:37;100029.94;;;-4.39;86.57
63700;BME280;49845;47.130;142.766;2023-02-18T07:39:07;100185.00;;;-3.47;86.71
63700;BME280;49845;47.130;142.766;2023-02-18T07:41:40;100186.72;;;-3.45;86.42
63700;BME280;49845;47.130;142.766;2023-02-18T07:44:10;100182.53;;;-3.43;86.56
63700;BME280;49845;47.130;142.766;2023-02-18T07:46:41;100187.66;;;-3.43;86.37
63700;BME280;49845;47.130;142.766;2023-02-18T07:49:14;100189.34;;;-3.44;86.54
63700;BME280;49845;47.130;142.766;2023-02-18T07:51:46;100191.00;;;-3.44;86.24
63700;BME280;49845;47.130;142.766;2023-02-18T07:54:17;100193.94;;;-4.00;81.24
63700;BME280;49845;47.130;142.766;2023-02-18T07:56:49;100178.66;;;-5.55;77.22
63700;BME280;49845;47.130;142.766;2023-02-18T07:59:20;100234.22;;;-6.00;78.94
63700;BME280;49845;47.130;142.766;2023-02-18T08:01:50;100226.00;;;-6.29;80.62
63700;BME280;49845;47.130;142.766;2023-02-18T08:04:31;100230.50;;;-6.41;81.01
63700;BME280;49845;47.130;142.766;2023-02-18T08:07:02;100201.41;;;-6.79;81.90
63700;BME280;49845;47.130;142.766;2023-02-18T08:09:46;100233.09;;;-6.73;82.36
63700;BME280;49845;47.130;142.766;2023-02-18T08:12:21;100240.19;;;-6.83;83.01
63700;BME280;49845;47.130;142.766;2023-02-18T08:14:52;100240.69;;;-6.89;83.21
63700;BME280;49845;47.130;142.766;2023-02-18T08:17:22;100253.00;;;-6.97;84.52
63700;BME280;49845;47.130;142.766;2023-02-18T08:19:53;100249.53;;;-6.99;84.96
63700;BME280;49845;47.130;142.766;2023-02-18T08:22:26;100247.59;;;-7.03;85.05
63700;BME280;49845;47.130;142.766;2023-02-18T08:25:03;100201.53;;;-7.25;85.31
63700;BME280;49845;47.130;142.766;2023-02-18T08:27:57;100214.41;;;-7.22;85.54
63700;BME280;49845;47.130;142.766;2023-02-18T08:30:28;100254.41;;;-7.02;85.83
63700;BME280;49845;47.130;142.766;2023-02-18T08:33:02;100262.50;;;-7.09;86.10
63700;BME280;49845;47.130;142.766;2023-02-18T08:35:33;100245.72;;;-7.22;86.12
63700;BME280;49845;47.130;142.766;2023-02-18T08:38:04;100260.25;;;-7.19;86.61
63700;BME280;49845;47.130;142.766;2023-02-18T08:40:35;100260.66;;;-7.28;86.35
63700;BME280;49845;47.130;142.766;2023-02-18T08:43:07;100268.00;;;-7.32;86.62
63700;BME280;49845;47.130;142.766;2023-02-18T08:45:38;100270.63;;;-7.31;87.38
63700;BME280;49845;47.130;142.766;2023-02-18T08:48:12;100276.41;;;-7.33;87.72
63700;BME280;49845;47.130;142.766;2023-02-18T08:50:47;100271.50;;;-7.30;87.90
63700;BME280;49845;47.130;142.766;2023-02-18T08:53:18;100269.31;;;-7.39;88.18
63700;BME280;49845;47.130;142.766;2023-02-18T08:55:48;100276.41;;;-7.33;88.10
63700;BME280;49845;47.130;142.766;2023-02-18T08:58:20;100291.81;;;-7.30;87.91
63700;BME280;49845;47.130;142.766;2023-02-18T09:00:51;100293.22;;;-7.35;87.65
63700;BME280;49845;47.130;142.766;2023-02-18T09:03:21;100290.44;;;-7.40;87.64
63700;BME280;49845;47.130;142.766;2023-02-18T09:05:52;100304.63;;;-7.44;87.51
63700;BME280;49845;47.130;142.766;2023-02-18T09:08:25;100304.94;;;-7.38;88.01
63700;BME280;49845;47.130;142.766;2023-02-18T09:10:56;100313.69;;;-7.32;88.01
63700;BME280;49845;47.130;142.766;2023-02-18T09:13:29;100322.81;;;-7.21;88.22
63700;BME280;49845;47.130;142.766;2023-02-18T09:16:02;100318.66;;;-7.19;88.34
63700;BME280;49845;47.130;142.766;2023-02-18T09:18:33;100283.22;;;-7.32;89.69
63700;BME280;49845;47.130;142.766;2023-02-18T09:21:06;100312.69;;;-7.05;89.93
63700;BME280;49845;47.130;142.766;2023-02-18T09:23:38;100210.13;;;-7.69;90.01
63700;BME280;49845;47.130;142.766;2023-02-18T09:26:14;100320.28;;;-7.05;90.18
63700;BME280;49845;47.130;142.766;2023-02-18T09:28:47;100317.00;;;-7.04;90.67
63700;BME280;49845;47.130;142.766;2023-02-18T09:31:21;100317.91;;;-7.02;91.22
63700;BME280;49845;47.130;142.766;2023-02-18T09:33:54;100330.81;;;-6.99;91.59
63700;BME280;49845;47.130;142.766;2023-02-18T09:36:25;100319.94;;;-6.96;91.62
63700;BME280;49845;47.130;142.766;2023-02-18T09:38:56;100316.50;;;-6.97;91.60
63700;BME280;49845;47.130;142.766;2023-02-18T09:41:36;100304.09;;;-7.07;91.41
63700;BME280;49845;47.130;142.766;2023-02-18T09:44:17;100329.34;;;-7.10;91.12
63700;BME280;49845;47.130;142.766;2023-02-18T09:46:52;100329.00;;;-7.16;91.44
63700;BME280;49845;47.130;142.766;2023-02-18T09:49:25;100315.69;;;-7.27;91.38
63700;BME280;49845;47.130;142.766;2023-02-18T09:52:06;100328.31;;;-7.28;91.59
63700;BME280;49845;47.130;142.766;2023-02-18T09:54:46;100339.88;;;-7.33;91.26
63700;BME280;49845;47.130;142.766;2023-02-18T09:57:23;100328.06;;;-7.48;90.98
63700;BME280;49845;47.130;142.766;2023-02-18T09:59:59;100343.31;;;-7.48;91.48
63700;BME280;49845;47.130;142.766;2023-02-18T10:02:32;100364.91;;;-7.40;91.69
63700;BME280;49845;47.130;142.766;2023-02-18T10:05:04;100361.81;;;-7.19;91.72
63700;BME280;49845;47.130;142.766;2023-02-18T10:07:35;100352.91;;;-7.27;90.78
63700;BME280;49845;47.130;142.766;2023-02-18T10:12:45;100316.84;;;-7.66;89.31
63700;BME280;49845;47.130;142.766;2023-02-18T10:15:21;100352.38;;;-7.37;89.19
63700;BME280;49845;47.130;142.766;2023-02-18T10:17:52;100365.59;;;-7.57;88.27
63700;BME280;49845;47.130;142.766;2023-02-18T10:20:28;100364.13;;;-7.68;88.02
63700;BME280;49845;47.130;142.766;2023-02-18T10:23:00;100367.59;;;-7.66;87.84
63700;BME280;49845;47.130;142.766;2023-02-18T10:25:39;100375.00;;;-7.56;87.62
63700;BME280;49845;47.130;142.766;2023-02-18T10:28:12;100352.91;;;-7.27;87.90
63700;BME280;49845;47.130;142.766;2023-02-18T10:30:50;100355.69;;;-7.08;87.40
63700;BME280;49845;47.130;142.766;2023-02-18T10:33:32;100342.91;;;-7.24;86.59
63700;BME280;49845;47.130;142.766;2023-02-18T10:36:14;100369.53;;;-7.03;86.49
63700;BME280;49845;47.130;142.766;2023-02-18T10:39:00;100379.50;;;-7.06;86.18
63700;BME280;49845;47.130;142.766;2023-02-18T10:41:37;100378.13;;;-7.30;85.27
63700;BME280;49845;47.130;142.766;2023-02-18T10:44:16;100371.66;;;-7.55;84.60
63700;BME280;49845;47.130;142.766;2023-02-18T10:46:58;100382.59;;;-7.56;84.95
63700;BME280;49845;47.130;142.766;2023-02-18T10:49:42;100374.63;;;-7.62;84.41
63700;BME280;49845;47.130;142.766;2023-02-18T10:52:21;100377.66;;;-7.83;84.11
63700;BME280;49845;47.130;142.766;2023-02-18T10:54:59;100372.66;;;-7.96;84.49
63700;BME280;49845;47.130;142.766;2023-02-18T10:57:33;100382.44;;;-8.02;84.25
63700;BME280;49845;47.130;142.766;2023-02-18T11:00:17;100381.69;;;-8.14;84.32
63700;BME280;49845;47.130;142.766;2023-02-18T11:03:01;100373.97;;;-8.31;84.49
63700;BME280;49845;47.130;142.766;2023-02-18T11:05:36;100375.53;;;-8.33;85.10
63700;BME280;49845;47.130;142.766;2023-02-18T11:08:10;100386.91;;;-8.41;85.31
63700;BME280;49845;47.130;142.766;2023-02-18T11:10:44;100398.44;;;-8.73;84.54
63700;BME280;49845;47.130;142.766;2023-02-18T11:13:24;100396.31;;;-9.06;84.85
63700;BME280;49845;47.130;142.766;2023-02-18T11:16:04;100350.34;;;-9.66;84.82
63700;BME280;49845;47.130;142.766;2023-02-18T11:18:39;100359.41;;;-9.81;85.43
63700;BME280;49845;47.130;142.766;2023-02-18T11:21:23;100279.16;;;-10.49;85.83
63700;BME280;49845;47.130;142.766;2023-02-18T11:24:06;100410.06;;;-9.93;86.79
63700;BME280;49845;47.130;142.766;2023-02-18T11:26:38;100400.19;;;-10.02;87.33
63700;BME280;49845;47.130;142.766;2023-02-18T11:29:19;100397.16;;;-10.09;87.76
63700;BME280;49845;47.130;142.766;2023-02-18T11:31:51;100401.41;;;-10.08;88.62
63700;BME280;49845;47.130;142.766;2023-02-18T11:34:28;100412.16;;;-10.24;88.70
63700;BME280;49845;47.130;142.766;2023-02-18T11:37:09;100404.00;;;-10.20;89.18
63700;BME280;49845;47.130;142.766;2023-02-18T11:39:44;100405.34;;;-10.25;89.14
63700;BME280;49845;47.130;142.766;2023-02-18T11:42:19;100396.84;;;-10.14;89.71
63700;BME280;49845;47.130;142.766;2023-02-18T11:44:55;100403.44;;;-9.91;90.20
63700;BME280;49845;47.130;142.766;2023-02-18T11:47:34;100418.16;;;-9.85;90.03
63700;BME280;49845;47.130;142.766;2023-02-18T11:50:21;100412.69;;;-9.91;89.75
63700;BME280;49845;47.130;142.766;2023-02-18T11:52:54;100424.75;;;-9.87;89.45
63700;BME280;49845;47.130;142.766;2023-02-18T11:55:28;100418.31;;;-9.95;88.90
63700;BME280;49845;47.130;142.766;2023-02-18T11:58:02;100389.25;;;-10.14;88.18
63700;BME280;49845;47.130;142.766;2023-02-18T12:00:37;100412.59;;;-10.18;86.87
63700;BME280;49845;47.130;142.766;2023-02-18T12:03:20;100428.94;;;-10.13;86.43
63700;BME280;49845;47.130;142.766;2023-02-18T12:05:56;100423.75;;;-10.39;84.83
63700;BME280;49845;47.130;142.766;2023-02-18T12:08:29;100361.38;;;-11.01;83.35
63700;BME280;49845;47.130;142.766;2023-02-18T12:11:03;100419.09;;;-10.82;82.49
63700;BME280;49845;47.130;142.766;2023-02-18T12:13:38;100427.47;;;-10.95;82.31
63700;BME280;49845;47.130;142.766;2023-02-18T12:16:19;100426.34;;;-10.87;82.09
63700;BME280;49845;47.130;142.766;2023-02-18T12:21:55;100430.63;;;-10.97;81.09
63700;BME280;49845;47.130;142.766;2023-02-18T12:24:42;100371.25;;;-11.51;80.13
63700;BME280;49845;47.130;142.766;2023-02-18T12:27:22;100348.00;;;-11.94;79.16
63700;BME280;49845;47.130;142.766;2023-02-18T12:30:12;100385.47;;;-11.87;78.87
63700;BME280;49845;47.130;142.766;2023-02-18T12:32:54;100424.53;;;-11.58;79.78
63700;BME280;49845;47.130;142.766;2023-02-18T12:35:55;100424.47;;;-11.48;80.24
63700;BME280;49845;47.130;142.766;2023-02-18T12:38:52;100425.59;;;-11.66;80.34
63700;BME280;49845;47.130;142.766;2023-02-18T12:41:51;100431.25;;;-11.81;80.99
63700;BME280;49845;47.130;142.766;2023-02-18T12:44:53;100435.19;;;-11.96;81.44
63700;BME280;49845;47.130;142.766;2023-02-18T12:47:38;100425.59;;;-11.90;82.22
63700;BME280;49845;47.130;142.766;2023-02-18T12:50:39;100426.47;;;-11.78;83.03
63700;BME280;49845;47.130;142.766;2023-02-18T12:53:39;100417.69;;;-11.83;83.71
63700;BME280;49845;47.130;142.766;2023-02-18T12:56:31;100434.66;;;-11.35;84.60
63700;BME280;49845;47.130;142.766;2023-02-18T12:59:15;100438.84;;;-11.23;84.40
63700;BME280;49845;47.130;142.766;2023-02-18T13:01:56;100388.81;;;-11.41;84.16
63700;BME280;49845;47.130;142.766;2023-02-18T13:04:43;100437.63;;;-11.29;82.88
63700;BME280;49845;47.130;142.766;2023-02-18T13:07:29;100434.44;;;-11.38;82.44
63700;BME280;49845;47.130;142.766;2023-02-18T13:13:10;100437.41;;;-11.89;81.71
63700;BME280;49845;47.130;142.766;2023-02-18T13:15:44;100424.44;;;-12.05;82.93
63700;BME280;49845;47.130;142.766;2023-02-18T13:18:23;100422.84;;;-12.15;83.79
63700;BME280;49845;47.130;142.766;2023-02-18T13:20:58;100417.16;;;-12.12;84.42